Time;durP1;ratioP1;P1;durP2;ratioP2;P2;SDS_P1;SDS_P2;PMS_P1;PMS_P2;Temp;Humidity;BMP_temperature;BMP_pressure;BME280_temperature;BME280_humidity;BME280_pressure;Samples;Min_cycle;Max_cycle;Signal;HPM_P1;HPM_P2
2023/05/05 00:00:20;;;;;;;3.85;3.05;;;19.10;42.50;;;;;;5037457;28;20053;-45
2023/05/05 00:02:47;;;;;;;6.05;3.53;;;19.10;42.70;;;;;;5037102;28;20053;-48
2023/05/05 00:05:15;;;;;;;6.53;3.03;;;19.10;42.90;;;;;;5037169;28;20500;-47
2023/05/05 00:07:42;;;;;;;6.03;2.50;;;19.00;42.90;;;;;;5037825;28;20052;-45
2023/05/05 00:10:10;;;;;;;5.53;2.90;;;19.00;43.00;;;;;;5039500;28;20053;-46
2023/05/05 00:12:37;;;;;;;6.88;2.83;;;19.00;42.90;;;;;;5038620;28;20057;-46
2023/05/05 00:15:06;;;;;;;3.63;2.53;;;18.90;43.00;;;;;;5032516;28;20057;-45
2023/05/05 00:17:34;;;;;;;3.67;2.40;;;18.90;43.00;;;;;;5035812;28;20065;-48
2023/05/05 00:20:02;;;;;;;7.60;2.53;;;18.90;43.00;;;;;;5038725;28;20045;-46
2023/05/05 00:22:29;;;;;;;4.40;3.20;;;18.80;42.90;;;;;;5038772;28;20412;-46
2023/05/05 00:24:56;;;;;;;4.18;2.92;;;18.80;43.10;;;;;;5033723;28;20061;-46
2023/05/05 00:27:23;;;;;;;4.32;2.70;;;18.80;43.20;;;;;;5038391;28;20626;-46
2023/05/05 00:29:50;;;;;;;2.88;2.60;;;18.70;43.20;;;;;;5037516;28;20053;-47
2023/05/05 00:32:18;;;;;;;3.60;2.60;;;18.70;43.30;;;;;;5034823;28;20060;-45
2023/05/05 00:34:46;;;;;;;3.58;2.70;;;18.60;43.30;;;;;;5036849;28;20049;-46
2023/05/05 00:37:13;;;;;;;4.72;2.95;;;18.70;43.40;;;;;;5038394;28;20405;-46
2023/05/05 00:39:40;;;;;;;7.80;3.08;;;18.60;43.30;;;;;;5039764;28;20052;-46
2023/05/05 00:42:08;;;;;;;7.97;2.58;;;18.60;43.30;;;;;;5037578;28;20049;-47
2023/05/05 00:44:38;;;;;;;4.72;3.05;;;18.60;43.30;;;;;;5038260;28;20788;-45
2023/05/05 00:47:06;;;;;;;3.42;2.80;;;18.60;43.40;;;;;;5033865;28;20079;-47
2023/05/05 00:49:34;;;;;;;3.38;2.95;;;18.50;43.30;;;;;;5038428;28;20418;-45
2023/05/05 00:52:05;;;;;;;3.60;2.60;;;18.50;43.40;;;;;;5034377;28;20045;-50
2023/05/05 00:54:33;;;;;;;4.18;2.80;;;18.50;43.40;;;;;;5036068;28;20547;-46
2023/05/05 00:57:00;;;;;;;5.65;2.92;;;18.50;43.40;;;;;;5037450;28;20057;-47
2023/05/05 00:59:29;;;;;;;4.40;2.70;;;18.50;43.40;;;;;;5037104;28;20049;-45
2023/05/05 01:01:56;;;;;;;3.65;2.97;;;18.50;43.50;;;;;;5033918;28;20056;-47
2023/05/05 01:04:25;;;;;;;5.18;2.80;;;18.50;43.60;;;;;;5053634;22;20068;-37
2023/05/05 01:07:04;;;;;;;4.25;2.97;;;18.50;43.60;;;;;;5039008;28;20052;-38
2023/05/05 01:09:41;;;;;;;3.42;2.38;;;18.50;43.70;;;;;;5040335;28;21186;-36
2023/05/05 01:12:17;;;;;;;3.42;2.83;;;18.50;43.60;;;;;;5035129;28;20400;-37
2023/05/05 01:14:53;;;;;;;3.38;2.45;;;18.50;43.60;;;;;;5037687;28;20056;-36
2023/05/05 01:17:24;;;;;;;8.18;3.00;;;18.50;43.60;;;;;;5042379;28;20053;-36
2023/05/05 01:20:03;;;;;;;5.72;2.67;;;18.50;43.60;;;;;;5042385;28;20045;-37
2023/05/05 01:22:37;;;;;;;3.58;2.78;;;18.40;43.70;;;;;;5041099;28;20051;-35
2023/05/05 01:25:25;;;;;;;3.95;2.92;;;18.40;43.60;;;;;;5042489;28;20488;-36
2023/05/05 01:28:09;;;;;;;3.97;2.78;;;18.40;43.70;;;;;;5042321;28;20058;-36
2023/05/05 01:31:00;;;;;;;4.20;2.88;;;18.40;43.60;;;;;;5040289;28;20068;-36
2023/05/05 01:33:33;;;;;;;5.47;3.00;;;18.40;43.60;;;;;;5038758;28;20053;-35
2023/05/05 01:36:06;;;;;;;3.50;2.80;;;18.40;43.70;;;;;;5043075;28;20052;-36
2023/05/05 01:38:40;;;;;;;2.97;2.33;;;18.40;43.70;;;;;;5040069;28;20055;-36
2023/05/05 01:41:12;;;;;;;3.35;2.65;;;18.30;43.70;;;;;;5042411;28;20048;-36
2023/05/05 01:43:44;;;;;;;5.93;2.80;;;18.40;43.80;;;;;;5039842;28;20408;-36
2023/05/05 01:46:13;;;;;;;4.38;2.78;;;18.30;43.70;;;;;;5039045;28;20057;-36
2023/05/05 01:48:42;;;;;;;5.95;3.05;;;18.30;43.80;;;;;;5040828;28;20052;-36
2023/05/05 01:51:10;;;;;;;3.42;2.60;;;18.30;43.90;;;;;;5040229;28;20045;-35
2023/05/05 01:53:39;;;;;;;5.03;2.50;;;18.30;43.90;;;;;;5038401;28;20488;-36
2023/05/05 01:56:08;;;;;;;5.20;2.80;;;18.30;43.80;;;;;;5041757;28;20060;-36
2023/05/05 01:58:37;;;;;;;4.28;2.50;;;18.30;43.90;;;;;;5042863;28;20057;-37
2023/05/05 02:01:05;;;;;;;4.63;2.70;;;18.20;43.90;;;;;;5039917;28;20053;-37
2023/05/05 02:03:34;;;;;;;3.20;2.55;;;18.20;44.00;;;;;;5037670;28;20064;-36
2023/05/05 02:06:04;;;;;;;4.25;2.75;;;18.20;44.00;;;;;;5042438;28;20531;-36
2023/05/05 02:08:32;;;;;;;5.78;3.10;;;18.20;44.10;;;;;;5040411;28;20076;-36
2023/05/05 02:11:00;;;;;;;4.97;2.80;;;18.10;44.00;;;;;;5039803;28;20956;-37
2023/05/05 02:13:31;;;;;;;4.40;2.90;;;18.20;44.10;;;;;;5036678;28;20064;-36
2023/05/05 02:15:59;;;;;;;3.92;2.90;;;18.10;44.10;;;;;;5040407;28;20048;-38
2023/05/05 02:18:27;;;;;;;4.53;2.70;;;18.10;44.10;;;;;;5040401;28;20056;-35
2023/05/05 02:20:54;;;;;;;4.90;2.70;;;18.10;44.10;;;;;;5041405;28;20064;-36
2023/05/05 02:23:23;;;;;;;5.32;2.90;;;18.10;44.20;;;;;;5040414;28;20044;-37
2023/05/05 02:25:55;;;;;;;3.38;2.50;;;18.10;44.30;;;;;;5041617;28;20053;-36
2023/05/05 02:28:31;;;;;;;6.35;3.30;;;18.10;44.50;;;;;;5041557;28;20503;-37
2023/05/05 02:31:00;;;;;;;7.00;2.80;;;18.10;44.50;;;;;;5037946;28;20065;-39
2023/05/05 02:33:33;;;;;;;3.45;2.38;;;18.10;44.60;;;;;;5040692;28;20053;-39
2023/05/05 02:36:06;;;;;;;4.60;2.92;;;18.20;44.80;;;;;;5041714;28;20048;-40
2023/05/05 02:38:40;;;;;;;5.30;2.27;;;18.10;44.80;;;;;;5041340;28;20049;-38
2023/05/05 02:41:11;;;;;;;5.15;2.90;;;18.20;44.80;;;;;;5039341;28;20425;-44
2023/05/05 02:43:40;;;;;;;4.82;2.60;;;18.20;44.70;;;;;;5042244;28;20049;-44
2023/05/05 02:46:08;;;;;;;6.72;2.78;;;18.20;44.70;;;;;;5036768;28;20061;-42
2023/05/05 02:48:35;;;;;;;4.97;2.78;;;18.20;44.70;;;;;;5036438;28;20072;-44
2023/05/05 02:51:02;;;;;;;3.35;2.33;;;18.20;44.70;;;;;;5029711;28;20052;-45
2023/05/05 02:53:30;;;;;;;4.28;2.72;;;18.20;44.70;;;;;;5038613;28;20053;-48
2023/05/05 02:56:07;;;;;;;4.22;2.70;;;18.20;44.60;;;;;;5039912;28;20049;-42
2023/05/05 02:58:42;;;;;;;5.78;3.17;;;18.20;44.60;;;;;;5036643;28;20500;-45
2023/05/05 03:01:18;;;;;;;3.88;2.60;;;18.20;44.60;;;;;;5036755;28;20060;-42
2023/05/05 03:03:51;;;;;;;3.75;2.80;;;18.20;44.60;;;;;;5037406;28;20063;-44
2023/05/05 03:06:21;;;;;;;6.18;2.95;;;18.20;44.70;;;;;;5038999;28;20075;-44
2023/05/05 03:08:53;;;;;;;4.15;2.80;;;18.20;44.80;;;;;;5036538;28;20053;-44
2023/05/05 03:11:28;;;;;;;5.35;2.88;;;18.20;44.90;;;;;;5043024;28;20060;-36
2023/05/05 03:14:04;;;;;;;3.35;2.58;;;18.20;45.00;;;;;;5038552;28;20400;-36
2023/05/05 03:16:35;;;;;;;3.72;2.50;;;18.20;45.10;;;;;;5037373;28;20060;-41
2023/05/05 03:19:03;;;;;;;3.22;2.65;;;18.20;45.10;;;;;;5041082;28;20057;-37
2023/05/05 03:21:32;;;;;;;3.30;2.65;;;18.20;45.20;;;;;;5039748;28;20049;-36
2023/05/05 03:23:59;;;;;;;3.42;2.55;;;18.20;45.20;;;;;;5042267;28;20056;-38
2023/05/05 03:26:28;;;;;;;3.70;2.53;;;18.20;45.20;;;;;;5039681;28;20049;-36
2023/05/05 03:28:55;;;;;;;4.30;2.72;;;18.20;45.40;;;;;;5040348;28;20052;-37
2023/05/05 03:31:22;;;;;;;3.85;2.65;;;18.20;45.60;;;;;;5037562;28;20052;-36
2023/05/05 03:33:50;;;;;;;4.22;3.15;;;18.20;45.60;;;;;;5039901;28;20087;-36
2023/05/05 03:36:17;;;;;;;3.88;2.80;;;18.20;45.70;;;;;;5040359;28;20052;-37
2023/05/05 03:38:44;;;;;;;4.38;3.10;;;18.20;45.70;;;;;;5039136;28;20421;-35
2023/05/05 03:41:11;;;;;;;7.35;3.13;;;18.20;45.70;;;;;;5039672;28;20056;-35
2023/05/05 03:43:40;;;;;;;5.15;2.78;;;18.10;46.10;;;;;;5040306;28;20492;-36
2023/05/05 03:46:09;;;;;;;5.47;3.00;;;18.10;45.80;;;;;;5038208;28;20484;-37
2023/05/05 03:48:36;;;;;;;7.63;3.03;;;18.10;45.80;;;;;;5039273;28;20055;-37
2023/05/05 03:51:03;;;;;;;3.95;2.80;;;18.10;45.90;;;;;;5037466;28;20064;-39
2023/05/05 03:53:30;;;;;;;5.03;2.85;;;18.10;45.90;;;;;;5037573;28;20052;-35
2023/05/05 03:55:58;;;;;;;3.42;3.00;;;18.10;46.10;;;;;;5008786;28;20056;-36
2023/05/05 03:58:25;;;;;;;5.57;2.92;;;18.00;46.30;;;;;;5020453;28;20056;-36
2023/05/05 04:00:54;;;;;;;3.83;2.92;;;18.00;46.60;;;;;;5017386;28;20053;-41
2023/05/05 04:03:21;;;;;;;5.10;3.03;;;18.00;46.80;;;;;;5019579;28;20045;-36
2023/05/05 04:05:48;;;;;;;5.50;3.35;;;18.00;46.80;;;;;;5019555;28;20445;-36
2023/05/05 04:08:16;;;;;;;3.55;2.80;;;18.00;47.10;;;;;;5015907;28;20056;-37
2023/05/05 04:10:43;;;;;;;6.07;3.03;;;18.00;47.20;;;;;;5018598;28;20481;-35
2023/05/05 04:13:10;;;;;;;7.63;3.30;;;18.00;47.30;;;;;;5015661;28;20049;-35
2023/05/05 04:15:37;;;;;;;5.13;3.38;;;18.00;47.30;;;;;;5014082;28;20072;-36
2023/05/05 04:18:06;;;;;;;4.28;3.00;;;18.00;47.20;;;;;;5016302;28;20053;-36
2023/05/05 04:20:35;;;;;;;6.13;2.88;;;18.00;47.30;;;;;;5011977;28;20052;-39
2023/05/05 04:23:02;;;;;;;4.13;3.05;;;18.00;47.20;;;;;;5010173;28;20061;-37
2023/05/05 04:25:29;;;;;;;4.35;3.15;;;18.00;47.20;;;;;;5011950;28;20072;-37
2023/05/05 04:27:56;;;;;;;6.30;3.28;;;18.00;47.20;;;;;;5014203;28;20519;-39
2023/05/05 04:30:24;;;;;;;3.38;2.90;;;18.00;47.20;;;;;;5015481;28;20520;-36
2023/05/05 04:32:51;;;;;;;4.00;3.10;;;18.00;47.30;;;;;;5017574;28;20058;-36
2023/05/05 04:35:20;;;;;;;4.05;2.97;;;18.00;47.40;;;;;;5012631;28;20049;-35
2023/05/05 04:37:47;;;;;;;4.68;2.83;;;18.00;47.40;;;;;;5003880;28;20080;-35
2023/05/05 04:40:15;;;;;;;4.30;2.95;;;18.00;47.50;;;;;;5013872;28;20511;-35
2023/05/05 04:42:42;;;;;;;15.85;7.45;;;18.00;47.50;;;;;;5014200;28;20408;-37
2023/05/05 04:45:10;;;;;;;9.38;5.47;;;18.00;47.70;;;;;;5010963;28;20053;-35
2023/05/05 04:47:37;;;;;;;6.55;4.47;;;18.00;47.80;;;;;;5011393;28;20129;-39
2023/05/05 04:50:05;;;;;;;6.47;3.42;;;17.90;47.90;;;;;;5010974;28;20049;-42
2023/05/05 04:52:34;;;;;;;5.45;3.33;;;18.00;48.10;;;;;;5015730;28;20045;-36
2023/05/05 04:55:02;;;;;;;4.00;3.03;;;18.00;48.10;;;;;;5020187;28;20049;-39
2023/05/05 04:57:30;;;;;;;4.40;3.17;;;18.00;48.10;;;;;;5020649;28;20415;-35
2023/05/05 04:59:58;;;;;;;3.20;2.83;;;18.00;48.20;;;;;;5017308;28;20057;-39
2023/05/05 05:02:26;;;;;;;5.38;3.10;;;18.00;48.20;;;;;;5021857;28;20061;-37
2023/05/05 05:04:53;;;;;;;6.30;3.83;;;18.00;48.30;;;;;;5018193;28;20076;-39
2023/05/05 05:07:20;;;;;;;9.38;4.28;;;18.10;48.50;;;;;;5015136;28;20063;-36
2023/05/05 05:09:49;;;;;;;11.38;6.38;;;18.10;48.50;;;;;;5013907;28;20412;-38
2023/05/05 05:12:16;;;;;;;7.60;5.68;;;18.10;48.50;;;;;;5020622;28;20515;-36
2023/05/05 05:14:43;;;;;;;6.68;4.05;;;18.10;49.10;;;;;;5017358;28;20049;-36
2023/05/05 05:17:10;;;;;;;4.80;3.50;;;18.10;48.60;;;;;;5017648;28;20064;-36
2023/05/05 05:19:38;;;;;;;4.70;3.35;;;18.20;48.70;;;;;;5022756;28;20053;-36
2023/05/05 05:22:05;;;;;;;3.50;3.03;;;18.20;48.80;;;;;;5018112;28;20057;-36
2023/05/05 05:24:33;;;;;;;4.35;3.60;;;18.30;49.00;;;;;;5017465;28;20515;-36
2023/05/05 05:27:02;;;;;;;4.85;3.50;;;18.30;49.30;;;;;;5016679;28;20072;-37
2023/05/05 05:29:29;;;;;;;4.03;3.00;;;18.30;49.40;;;;;;5016925;28;20062;-36
2023/05/05 05:31:57;;;;;;;9.25;3.38;;;18.40;49.30;;;;;;5015481;28;20072;-37
2023/05/05 05:34:24;;;;;;;4.88;3.60;;;18.50;49.60;;;;;;5019754;28;20408;-38
2023/05/05 05:36:51;;;;;;;4.85;2.88;;;18.50;49.50;;;;;;5021128;28;20056;-36
2023/05/05 05:39:18;;;;;;;6.13;3.60;;;18.60;49.80;;;;;;5016946;28;20049;-40
2023/05/05 05:41:46;;;;;;;4.55;3.17;;;18.60;49.80;;;;;;5019070;28;20417;-36
2023/05/05 05:44:14;;;;;;;3.78;3.28;;;18.70;49.90;;;;;;5022371;28;20057;-36
2023/05/05 05:46:41;;;;;;;4.97;2.85;;;18.80;50.00;;;;;;5010154;28;20053;-37
2023/05/05 05:49:09;;;;;;;5.90;3.67;;;18.90;50.20;;;;;;5020124;28;20060;-36
2023/05/05 05:51:36;;;;;;;5.47;3.08;;;18.90;50.30;;;;;;5020735;28;20497;-35
2023/05/05 05:54:03;;;;;;;7.25;4.10;;;19.00;50.30;;;;;;5020520;28;20046;-39
2023/05/05 05:56:30;;;;;;;5.07;3.60;;;19.10;50.30;;;;;;5020323;28;20056;-38
2023/05/05 05:58:58;;;;;;;6.72;3.63;;;19.10;50.40;;;;;;5021347;28;20607;-36
2023/05/05 06:01:26;;;;;;;6.50;4.47;;;19.20;50.50;;;;;;5012518;28;20054;-36
2023/05/05 06:03:54;;;;;;;6.32;3.63;;;19.20;50.60;;;;;;5019011;28;20068;-37
2023/05/05 06:06:21;;;;;;;5.05;3.30;;;19.30;50.60;;;;;;5020431;28;20064;-38
2023/05/05 06:08:48;;;;;;;5.65;3.17;;;19.30;50.40;;;;;;5019020;28;20425;-40
2023/05/05 06:11:15;;;;;;;6.07;3.53;;;19.40;50.30;;;;;;5018898;28;20045;-40
2023/05/05 06:13:42;;;;;;;8.82;3.65;;;19.40;50.30;;;;;;5015867;28;20060;-37
2023/05/05 06:16:10;;;;;;;6.68;3.28;;;19.40;50.40;;;;;;5018825;28;20049;-38
2023/05/05 06:18:38;;;;;;;4.63;3.95;;;19.50;50.40;;;;;;5019184;28;20494;-38
2023/05/05 06:21:06;;;;;;;7.07;4.30;;;19.50;50.20;;;;;;5013071;28;20049;-36
2023/05/05 06:23:33;;;;;;;8.95;4.03;;;19.60;50.30;;;;;;5014217;28;20060;-37
2023/05/05 06:26:00;;;;;;;6.78;3.67;;;19.60;50.50;;;;;;5013375;28;20053;-38
2023/05/05 06:28:27;;;;;;;4.70;3.78;;;19.60;50.50;;;;;;5016015;28;20425;-35
2023/05/05 06:30:55;;;;;;;6.78;4.20;;;19.60;50.30;;;;;;5016729;28;20057;-36
2023/05/05 06:33:22;;;;;;;4.95;4.00;;;19.60;50.30;;;;;;5014467;28;20060;-37
2023/05/05 06:35:53;;;;;;;5.53;3.90;;;19.70;50.30;;;;;;5012043;28;20050;-36
2023/05/05 06:38:20;;;;;;;5.43;3.78;;;19.70;50.30;;;;;;5016672;28;20057;-36
2023/05/05 06:40:49;;;;;;;3.95;3.20;;;19.70;50.30;;;;;;5014080;28;20057;-37
2023/05/05 06:43:16;;;;;;;7.15;4.10;;;19.80;50.50;;;;;;5013187;28;20142;-36
2023/05/05 06:45:44;;;;;;;5.82;3.70;;;19.80;50.50;;;;;;5014377;28;20072;-36
2023/05/05 06:48:12;;;;;;;5.25;3.97;;;19.80;50.50;;;;;;5018119;28;20045;-36
2023/05/05 06:50:39;;;;;;;7.25;4.35;;;19.80;50.40;;;;;;5018459;28;20049;-36
2023/05/05 06:53:08;;;;;;;6.05;4.18;;;19.90;50.40;;;;;;5014287;28;20068;-39
2023/05/05 06:55:35;;;;;;;7.30;4.38;;;19.90;50.50;;;;;;5010646;28;20057;-36
2023/05/05 06:58:03;;;;;;;6.35;3.88;;;19.90;50.60;;;;;;5017677;28;20057;-36
2023/05/05 07:00:30;;;;;;;7.93;4.55;;;20.00;50.60;;;;;;5014870;28;20060;-39
2023/05/05 07:02:57;;;;;;;8.40;4.50;;;20.00;50.60;;;;;;5016204;28;20041;-40
2023/05/05 07:05:24;;;;;;;7.20;5.13;;;20.00;50.80;;;;;;4997599;28;20049;-40
2023/05/05 07:07:52;;;;;;;4.95;4.22;;;20.10;51.20;;;;;;4996069;28;20058;-39
2023/05/05 07:10:22;;;;;;;9.75;5.38;;;20.10;51.20;;;;;;4995477;28;20056;-36
2023/05/05 07:12:50;;;;;;;9.57;5.80;;;20.20;51.30;;;;;;4990245;28;20054;-38
2023/05/05 07:15:17;;;;;;;9.90;6.22;;;20.20;51.30;;;;;;4993594;28;20050;-40
2023/05/05 07:17:45;;;;;;;9.50;5.90;;;20.30;51.30;;;;;;4997733;28;20058;-36
2023/05/05 07:20:12;;;;;;;9.15;6.30;;;20.40;51.50;;;;;;4995255;28;20061;-36
2023/05/05 07:22:39;;;;;;;10.75;6.93;;;20.40;51.20;;;;;;4996384;28;20058;-36
2023/05/05 07:25:09;;;;;;;11.98;5.95;;;20.40;51.30;;;;;;4996071;28;20061;-36
2023/05/05 07:27:38;;;;;;;12.00;6.55;;;20.50;51.10;;;;;;4996665;28;20066;-36
2023/05/05 07:30:06;;;;;;;9.18;5.55;;;20.60;51.10;;;;;;4992085;28;20054;-40
2023/05/05 07:32:34;;;;;;;8.82;5.57;;;20.70;51.00;;;;;;4996430;28;20053;-37
2023/05/05 07:35:01;;;;;;;8.95;6.38;;;20.70;50.90;;;;;;4996165;28;20058;-37
2023/05/05 07:37:28;;;;;;;8.55;6.22;;;20.80;50.90;;;;;;4993632;28;20054;-36
2023/05/05 07:39:56;;;;;;;8.43;5.93;;;20.80;50.90;;;;;;4998220;28;20521;-36
2023/05/05 07:42:23;;;;;;;8.27;6.30;;;20.90;50.90;;;;;;4997701;28;20061;-35
2023/05/05 07:44:51;;;;;;;9.20;6.63;;;20.90;50.80;;;;;;4988763;28;20517;-40
2023/05/05 07:47:19;;;;;;;11.32;7.60;;;21.00;50.90;;;;;;4994270;28;20524;-45
2023/05/05 07:49:46;;;;;;;9.45;7.43;;;21.00;51.00;;;;;;4993119;28;20058;-44
2023/05/05 07:52:14;;;;;;;13.32;7.68;;;21.10;50.70;;;;;;4995461;28;20046;-42
2023/05/05 07:54:41;;;;;;;10.80;7.95;;;21.20;50.40;;;;;;4991986;28;20410;-42
2023/05/05 07:57:08;;;;;;;11.00;8.00;;;21.20;50.30;;;;;;4991019;28;20057;-44
2023/05/05 07:59:37;;;;;;;11.52;7.97;;;21.30;50.20;;;;;;4998036;28;20512;-43
2023/05/05 08:02:06;;;;;;;10.07;7.45;;;21.30;50.20;;;;;;4993825;28;20061;-44
2023/05/05 08:04:33;;;;;;;15.68;9.27;;;21.30;50.20;;;;;;4996112;28;20264;-42
2023/05/05 08:07:00;;;;;;;15.40;8.98;;;21.40;50.50;;;;;;5012963;28;20057;-42
2023/05/05 08:09:27;;;;;;;17.27;8.63;;;21.40;49.90;;;;;;5019151;28;20493;-42
2023/05/05 08:11:55;;;;;;;13.88;10.13;;;21.40;50.00;;;;;;5011212;28;20065;-44
2023/05/05 08:14:22;;;;;;;11.57;8.55;;;21.40;49.70;;;;;;5017241;28;20060;-44
2023/05/05 08:16:50;;;;;;;12.80;8.52;;;21.40;49.60;;;;;;5017295;28;20053;-42
2023/05/05 08:19:19;;;;;;;13.15;8.55;;;21.40;50.00;;;;;;5018666;28;20049;-44
2023/05/05 08:21:46;;;;;;;17.40;9.57;;;21.40;50.10;;;;;;5010702;28;20064;-45
2023/05/05 08:24:14;;;;;;;15.90;9.85;;;21.40;49.50;;;;;;5015474;28;20433;-44
2023/05/05 08:26:41;;;;;;;13.30;9.15;;;21.40;49.60;;;;;;5014643;28;20049;-44
2023/05/05 08:29:08;;;;;;;13.55;9.93;;;21.40;49.70;;;;;;5018085;28;20057;-42
2023/05/05 08:31:36;;;;;;;12.45;9.45;;;21.30;49.40;;;;;;5017916;28;20057;-42
2023/05/05 08:34:04;;;;;;;17.45;10.13;;;21.30;49.70;;;;;;5021052;28;20064;-42
2023/05/05 08:36:33;;;;;;;17.05;10.88;;;21.30;50.10;;;;;;5017283;28;20060;-45
2023/05/05 08:39:00;;;;;;;14.50;9.18;;;21.30;50.10;;;;;;5022016;28;20056;-44
2023/05/05 08:41:28;;;;;;;12.63;9.75;;;21.30;50.20;;;;;;5017638;28;20064;-42
2023/05/05 08:43:55;;;;;;;18.25;9.95;;;21.30;49.90;;;;;;5021804;28;20049;-44
2023/05/05 08:46:23;;;;;;;15.32;10.15;;;21.30;50.00;;;;;;5016112;28;20060;-45
2023/05/05 08:48:54;;;;;;;11.43;8.55;;;21.30;50.20;;;;;;5013890;28;20054;-42
2023/05/05 08:51:23;;;;;;;14.32;9.02;;;21.30;50.40;;;;;;5014521;28;20055;-42
2023/05/05 08:53:58;;;;;;;14.23;9.88;;;21.40;50.40;;;;;;5018529;28;20049;-47
2023/05/05 08:56:31;;;;;;;15.98;11.02;;;21.50;50.10;;;;;;5016624;28;20393;-44
2023/05/05 08:59:00;;;;;;;15.35;10.70;;;21.50;49.70;;;;;;5012342;28;20060;-43
2023/05/05 09:01:27;;;;;;;18.80;11.63;;;21.60;49.60;;;;;;5013116;28;20497;-45
2023/05/05 09:03:55;;;;;;;15.60;11.15;;;21.60;49.50;;;;;;5016710;28;20493;-43
2023/05/05 09:06:25;;;;;;;17.58;12.38;;;21.70;49.40;;;;;;5013894;28;20053;-43
2023/05/05 09:08:54;;;;;;;15.13;10.77;;;21.70;49.10;;;;;;5014525;28;20042;-43
2023/05/05 09:11:22;;;;;;;18.38;11.48;;;21.70;49.30;;;;;;5018490;28;20412;-42
2023/05/05 09:13:49;;;;;;;17.25;11.60;;;21.80;49.20;;;;;;5015881;28;20049;-44
2023/05/05 09:16:16;;;;;;;15.23;11.02;;;21.70;49.60;;;;;;5016933;28;20080;-45
2023/05/05 09:18:44;;;;;;;23.90;13.10;;;21.70;49.30;;;;;;5016527;28;20060;-45
2023/05/05 09:21:21;;;;;;;19.75;13.15;;;21.80;49.10;;;;;;5018109;28;20060;-43
2023/05/05 09:24:08;;;;;;;17.75;12.52;;;21.80;48.90;;;;;;5011669;28;20417;-45
2023/05/05 09:26:37;;;;;;;21.92;13.80;;;21.70;48.80;;;;;;5011378;28;20428;-42
2023/05/05 09:29:05;;;;;;;19.52;12.10;;;21.70;49.10;;;;;;5011479;28;20057;-42
2023/05/05 09:31:34;;;;;;;19.27;12.82;;;21.70;48.80;;;;;;5018403;28;20417;-44
2023/05/05 09:34:03;;;;;;;22.05;13.13;;;21.70;49.20;;;;;;5016589;28;20056;-42
2023/05/05 09:36:47;;;;;;;20.52;13.88;;;21.70;49.40;;;;;;5018812;28;20065;-46
2023/05/05 09:39:18;;;;;;;26.08;13.23;;;21.70;49.10;;;;;;5012919;28;20062;-42
2023/05/05 09:41:46;;;;;;;19.02;13.02;;;21.80;49.20;;;;;;5018255;28;20049;-44
2023/05/05 09:44:14;;;;;;;14.27;11.18;;;21.80;49.50;;;;;;5016161;28;20069;-42
2023/05/05 09:46:50;;;;;;;17.38;13.77;;;21.80;49.60;;;;;;5016180;28;20052;-43
2023/05/05 09:49:19;;;;;;;18.02;12.65;;;21.90;48.60;;;;;;5018324;28;20061;-43
2023/05/05 09:51:47;;;;;;;16.63;12.32;;;21.90;48.90;;;;;;5019439;28;20049;-43
2023/05/05 09:54:26;;;;;;;17.10;11.63;;;21.90;49.00;;;;;;5018263;28;20513;-44
2023/05/05 09:56:53;;;;;;;16.40;11.15;;;22.00;49.00;;;;;;5014976;28;20053;-42
2023/05/05 09:59:21;;;;;;;18.33;13.18;;;22.00;49.40;;;;;;5015688;28;20072;-42
2023/05/05 10:01:48;;;;;;;18.02;11.50;;;22.10;48.80;;;;;;5015360;28;20489;-45
2023/05/05 10:04:27;;;;;;;17.95;12.93;;;22.10;49.10;;;;;;5017722;28;20997;-43
2023/05/05 10:06:55;;;;;;;16.95;11.05;;;22.10;48.80;;;;;;4999259;28;20062;-43
2023/05/05 10:09:25;;;;;;;19.15;10.82;;;22.20;48.60;;;;;;4997207;28;20401;-45
2023/05/05 10:11:53;;;;;;;12.13;10.05;;;22.20;48.50;;;;;;4999025;28;20516;-45
2023/05/05 10:14:20;;;;;;;15.07;10.32;;;22.30;48.70;;;;;;4998687;28;20054;-45
2023/05/05 10:16:49;;;;;;;16.40;10.68;;;22.30;48.80;;;;;;4998866;28;20053;-41
2023/05/05 10:19:18;;;;;;;20.15;10.10;;;22.40;48.60;;;;;;4997863;28;20058;-46
2023/05/05 10:21:50;;;;;;;13.40;9.00;;;22.40;48.00;;;;;;5000883;28;20504;-43
2023/05/05 10:24:25;;;;;;;14.48;9.23;;;22.50;48.20;;;;;;4995834;28;20492;-44
2023/05/05 10:26:57;;;;;;;9.55;6.97;;;22.60;46.90;;;;;;4996305;28;20084;-43
2023/05/05 10:29:33;;;;;;;12.65;8.48;;;22.60;47.30;;;;;;4997324;28;20050;-42
2023/05/05 10:32:05;;;;;;;14.98;8.73;;;22.70;47.20;;;;;;4995795;28;20533;-42
2023/05/05 10:34:39;;;;;;;12.85;9.20;;;22.70;47.20;;;;;;4996761;28;20406;-42
2023/05/05 10:37:07;;;;;;;13.20;8.32;;;22.80;47.40;;;;;;4995456;28;20058;-37
2023/05/05 10:39:37;;;;;;;12.50;8.38;;;22.80;48.00;;;;;;5000608;28;20065;-40
2023/05/05 10:42:06;;;;;;;15.07;8.77;;;22.70;48.50;;;;;;4991533;28;20707;-41
2023/05/05 10:44:35;;;;;;;12.88;9.55;;;22.70;49.10;;;;;;4991518;28;20631;-40
2023/05/05 10:47:03;;;;;;;12.45;8.35;;;22.60;49.20;;;;;;5000967;28;20050;-37
2023/05/05 10:49:37;;;;;;;15.95;8.77;;;22.60;49.50;;;;;;4998879;28;20421;-36
2023/05/05 10:52:13;;;;;;;16.80;9.55;;;22.40;49.60;;;;;;4998614;28;20498;-37
2023/05/05 10:54:49;;;;;;;18.13;7.95;;;22.40;49.90;;;;;;4999454;28;20077;-37
2023/05/05 10:57:25;;;;;;;12.65;5.95;;;22.30;50.30;;;;;;4999119;28;20057;-38
2023/05/05 10:59:52;;;;;;;15.02;6.07;;;22.20;50.50;;;;;;4993933;28;20053;-37
2023/05/05 11:02:22;;;;;;;10.57;7.18;;;22.20;50.60;;;;;;4997358;28;20493;-38
2023/05/05 11:05:04;;;;;;;11.65;6.88;;;22.10;50.80;;;;;;5001443;28;20053;-37
2023/05/05 11:07:33;;;;;;;10.73;8.20;;;22.10;51.10;;;;;;5020781;28;20057;-37
2023/05/05 11:10:01;;;;;;;15.65;7.50;;;22.10;51.20;;;;;;5019086;28;20409;-38
2023/05/05 11:12:30;;;;;;;11.02;7.68;;;22.10;51.40;;;;;;5016703;28;20053;-36
2023/05/05 11:15:32;;;;;;;16.65;6.88;;;22.00;51.50;;;;;;5015669;28;20476;-39
2023/05/05 11:18:01;;;;;;;13.32;5.00;;;22.00;51.30;;;;;;5019032;28;20048;-36
2023/05/05 11:21:07;;;;;;;8.95;5.18;;;21.90;51.00;;;;;;5016852;28;20053;-40
2023/05/05 11:23:35;;;;;;;7.97;3.60;;;21.90;51.10;;;;;;5007549;28;20564;-37
2023/05/05 11:26:02;;;;;;;9.32;3.53;;;21.80;51.00;;;;;;5013086;28;20053;-41
2023/05/05 11:28:31;;;;;;;8.63;4.32;;;21.70;51.00;;;;;;5010643;28;20065;-37
2023/05/05 11:31:20;;;;;;;7.43;3.30;;;21.70;51.10;;;;;;5012538;28;20056;-40
2023/05/05 11:33:47;;;;;;;10.43;3.47;;;21.70;50.80;;;;;;5019895;28;20406;-38
2023/05/05 11:36:16;;;;;;;6.75;3.63;;;21.60;50.60;;;;;;5010863;28;20481;-37
2023/05/05 11:39:08;;;;;;;8.95;3.13;;;21.50;51.20;;;;;;5010920;28;20441;-37
2023/05/05 11:42:05;;;;;;;6.45;2.53;;;21.50;50.90;;;;;;5007877;28;20057;-39
2023/05/05 11:44:34;;;;;;;5.55;2.42;;;21.50;51.20;;;;;;5010718;28;20057;-40
2023/05/05 11:47:30;;;;;;;3.90;2.80;;;21.50;51.60;;;;;;5017542;28;20076;-36
2023/05/05 11:49:57;;;;;;;6.70;3.28;;;21.60;52.20;;;;;;5017507;28;20523;-37
2023/05/05 11:52:26;;;;;;;7.90;3.30;;;21.70;52.20;;;;;;5021255;28;20060;-37
2023/05/05 11:54:53;;;;;;;8.68;3.15;;;21.70;52.40;;;;;;5017787;28;20062;-36
2023/05/05 11:57:27;;;;;;;6.13;2.58;;;21.80;52.20;;;;;;5020582;28;20053;-40
2023/05/05 11:59:58;;;;;;;6.95;2.80;;;21.90;52.30;;;;;;5012887;28;20060;-37
2023/05/05 12:02:28;;;;;;;7.53;3.28;;;22.00;52.30;;;;;;5020786;28;20533;-37
2023/05/05 12:04:56;;;;;;;8.57;3.75;;;22.00;52.80;;;;;;5017044;28;20062;-37
2023/05/05 12:07:25;;;;;;;5.78;2.50;;;22.00;52.70;;;;;;5007516;28;20057;-36
2023/05/05 12:09:53;;;;;;;5.57;1.23;;;21.90;51.80;;;;;;4999601;28;20379;-38
2023/05/05 12:12:21;;;;;;;3.45;1.00;;;21.70;49.00;;;;;;5013692;28;20068;-37
2023/05/05 12:14:51;;;;;;;1.25;1.02;;;21.50;48.40;;;;;;5012433;28;20057;-37
2023/05/05 12:17:22;;;;;;;9.52;1.05;;;21.30;47.90;;;;;;5017315;28;20053;-36
2023/05/05 12:19:51;;;;;;;3.58;0.80;;;21.00;48.30;;;;;;5006934;28;20508;-38
2023/05/05 12:22:24;;;;;;;3.60;0.85;;;20.70;49.70;;;;;;5005339;28;21382;-36
2023/05/05 12:24:55;;;;;;;7.32;0.90;;;20.50;50.10;;;;;;5007665;28;20478;-38
2023/05/05 12:27:23;;;;;;;7.45;0.95;;;20.30;49.70;;;;;;5015343;28;20497;-37
2023/05/05 12:29:51;;;;;;;8.43;0.70;;;20.10;50.00;;;;;;5010074;28;20519;-38
2023/05/05 12:32:23;;;;;;;2.55;0.90;;;20.00;49.80;;;;;;5010434;28;20053;-36
2023/05/05 12:34:54;;;;;;;1.77;0.70;;;19.90;50.30;;;;;;5015619;28;20049;-36
2023/05/05 12:37:22;;;;;;;2.35;1.13;;;19.80;50.90;;;;;;5010516;28;20050;-40
2023/05/05 12:39:49;;;;;;;4.28;1.13;;;19.60;51.40;;;;;;5004386;28;20065;-37
2023/05/05 12:42:17;;;;;;;3.03;1.00;;;19.60;51.70;;;;;;5003422;28;20505;-36
2023/05/05 12:44:45;;;;;;;2.08;1.05;;;19.50;51.40;;;;;;5001272;28;20080;-37
2023/05/05 12:47:13;;;;;;;4.18;1.45;;;19.50;51.90;;;;;;5013240;28;20058;-36
2023/05/05 12:49:49;;;;;;;13.95;1.73;;;19.40;52.30;;;;;;5003445;28;20076;-37
2023/05/05 12:52:17;;;;;;;4.90;1.02;;;19.40;52.70;;;;;;5005266;28;20069;-37
2023/05/05 12:54:54;;;;;;;1.98;0.70;;;19.30;52.50;;;;;;5005056;28;20060;-37